createdAt,value
2022-12-06T00:07:52.102Z,0.51
2022-12-06T00:16:16.136Z,0.52
2022-12-06T00:24:37.890Z,0.49
2022-12-06T00:32:59.317Z,0.49
2022-12-06T00:41:23.375Z,0.54
2022-12-06T00:49:44.964Z,0.60
2022-12-06T00:58:06.657Z,0.56
2022-12-06T01:06:31.495Z,0.50
2022-12-06T01:14:53.037Z,0.47
2022-12-06T01:23:15.037Z,0.47
2022-12-06T01:31:38.931Z,0.40
2022-12-06T01:40:01.261Z,0.30
2022-12-06T01:48:25.919Z,0.27
2022-12-06T01:56:49.563Z,0.32
2022-12-06T02:05:12.531Z,0.39
2022-12-06T02:13:35.857Z,0.39
2022-12-06T02:22:37.774Z,0.30
2022-12-06T02:31:06.577Z,0.26
2022-12-06T02:39:57.033Z,0.22
2022-12-06T02:48:21.635Z,0.18
2022-12-06T02:56:43.059Z,0.18
2022-12-06T03:05:14.532Z,0.16
2022-12-06T03:13:58.571Z,0.12
2022-12-06T03:22:44.317Z,0.18
2022-12-06T03:31:11.343Z,0.26
2022-12-06T03:40:07.430Z,0.31
2022-12-06T03:48:34.247Z,0.27
2022-12-06T03:56:55.793Z,0.28
2022-12-06T04:05:18.266Z,0.33
2022-12-06T04:13:40.264Z,0.31
2022-12-06T04:22:40.404Z,0.21
2022-12-06T04:31:22.466Z,0.20
2022-12-06T04:39:44.618Z,0.22
2022-12-06T04:48:06.113Z,0.19
2022-12-06T04:56:27.983Z,0.20
2022-12-06T05:04:49.420Z,0.27
2022-12-06T05:13:10.927Z,0.31
2022-12-06T05:21:33.767Z,0.27
2022-12-06T05:29:55.196Z,0.18
2022-12-06T05:38:18.021Z,0.16
2022-12-06T05:46:39.500Z,0.20
2022-12-06T05:55:00.971Z,0.26
2022-12-06T06:03:22.503Z,0.22
2022-12-06T06:11:43.997Z,0.18
2022-12-06T06:20:07.583Z,0.23
2022-12-06T06:28:29.041Z,0.26
2022-12-06T06:36:51.024Z,0.23
2022-12-06T06:45:13.361Z,0.28
2022-12-06T06:53:35.823Z,0.33
2022-12-06T07:01:57.492Z,0.38
2022-12-06T07:10:19.362Z,0.35
2022-12-06T07:18:44.278Z,0.29
2022-12-06T07:27:05.807Z,0.29
2022-12-06T07:35:42.334Z,0.36
2022-12-06T07:44:29.795Z,0.44
2022-12-06T07:52:51.384Z,0.46
2022-12-06T08:01:13.183Z,0.49
2022-12-06T08:09:34.659Z,0.56
2022-12-06T08:17:56.125Z,0.64
2022-12-06T08:26:18.148Z,0.74
2022-12-06T08:34:39.899Z,0.80
2022-12-06T08:43:01.869Z,0.80
2022-12-06T08:51:23.903Z,0.84
2022-12-06T08:59:46.291Z,0.91
2022-12-06T09:08:07.869Z,0.99
2022-12-06T09:16:30.043Z,1.04
2022-12-06T09:24:51.809Z,1.05
2022-12-06T09:33:13.242Z,1.12
2022-12-06T09:42:16.512Z,1.18
2022-12-06T09:50:53.195Z,1.24
2022-12-06T09:59:36.952Z,1.25
2022-12-06T10:08:10.784Z,1.27
2022-12-06T10:16:49.845Z,1.34
2022-12-06T10:25:31.618Z,1.39
2022-12-06T10:34:02.200Z,1.40
2022-12-06T10:42:32.261Z,1.47
2022-12-06T10:51:02.543Z,1.49
2022-12-06T10:59:51.141Z,1.48
2022-12-06T11:08:32.792Z,1.50
2022-12-06T11:17:15.452Z,1.64
2022-12-06T11:26:20.425Z,1.77
2022-12-06T11:34:49.536Z,1.81
2022-12-06T11:43:24.304Z,1.91
2022-12-06T11:51:45.860Z,2.00
2022-12-06T12:00:15.836Z,2.06
2022-12-06T12:08:37.564Z,2.03
2022-12-06T12:17:01.786Z,2.04
2022-12-06T12:25:29.519Z,2.10
2022-12-06T12:34:13.922Z,2.18
2022-12-06T12:42:39.512Z,2.17
2022-12-06T12:51:09.371Z,2.13
2022-12-06T12:59:37.342Z,2.12
2022-12-06T13:08:21.820Z,2.10
2022-12-06T13:16:45.398Z,2.08
2022-12-06T13:25:07.798Z,2.08
2022-12-06T13:33:35.689Z,2.10
2022-12-06T13:42:18.767Z,2.14
2022-12-06T13:50:40.295Z,2.14
2022-12-06T13:59:24.993Z,2.10
2022-12-06T14:07:47.052Z,2.09
2022-12-06T14:16:14.651Z,2.07
2022-12-06T14:24:40.274Z,1.97
2022-12-06T14:33:16.478Z,1.96
2022-12-06T14:41:57.521Z,2.01
2022-12-06T14:50:30.187Z,2.07
2022-12-06T14:58:56.304Z,2.06
2022-12-06T15:07:42.434Z,2.05
2022-12-06T15:16:07.613Z,2.02
2022-12-06T15:24:30.984Z,2.01
2022-12-06T15:32:54.379Z,1.95
2022-12-06T15:41:25.296Z,1.93
2022-12-06T15:49:48.844Z,1.97
2022-12-06T15:58:13.886Z,2.02
2022-12-06T16:06:37.302Z,2.04
2022-12-06T16:15:00.413Z,1.97
2022-12-06T16:32:26.816Z,1.95
2022-12-06T16:40:48.452Z,1.95
2022-12-06T16:58:02.945Z,1.76
2022-12-06T17:06:26.355Z,1.73
2022-12-06T17:14:48.050Z,1.73
2022-12-06T17:23:09.833Z,1.73
2022-12-06T17:31:31.492Z,1.74
2022-12-06T17:39:53.095Z,1.74
2022-12-06T17:48:14.582Z,1.83
2022-12-06T17:56:47.372Z,1.88
2022-12-06T18:05:09.218Z,1.85
2022-12-06T18:13:30.863Z,1.85
2022-12-06T18:21:52.512Z,1.91
2022-12-06T18:30:15.308Z,1.92
2022-12-06T18:38:37.100Z,1.87
2022-12-06T18:46:59.094Z,1.89
2022-12-06T18:55:20.671Z,1.95
2022-12-06T19:03:42.801Z,1.94
2022-12-06T19:12:05.855Z,1.87
2022-12-06T19:20:27.874Z,1.85
2022-12-06T19:28:50.320Z,1.88
2022-12-06T19:37:11.863Z,1.88
2022-12-06T19:45:33.316Z,1.82
2022-12-06T19:53:57.739Z,1.84
2022-12-06T20:02:19.395Z,1.89
2022-12-06T20:10:43.435Z,1.88
2022-12-06T20:19:06.841Z,1.80
2022-12-06T20:27:50.185Z,1.79
2022-12-06T20:36:17.960Z,1.83
2022-12-06T20:44:39.418Z,1.88
2022-12-06T21:02:50.435Z,1.80
2022-12-06T21:11:22.540Z,1.85
2022-12-06T21:19:45.229Z,1.85
2022-12-06T21:28:06.683Z,1.73
2022-12-06T21:36:28.580Z,1.63
2022-12-06T21:44:50.136Z,1.57
2022-12-06T21:53:11.559Z,1.45
2022-12-06T22:01:33.511Z,1.29
2022-12-06T22:09:55.006Z,1.18
2022-12-06T22:18:16.592Z,1.17
2022-12-06T22:26:38.321Z,1.16
2022-12-06T22:34:59.762Z,1.13
2022-12-06T22:43:21.296Z,1.13
2022-12-06T22:51:42.828Z,1.16
2022-12-06T23:00:05.896Z,1.12
2022-12-06T23:08:27.468Z,1.07
2022-12-06T23:16:49.515Z,1.07
2022-12-06T23:25:10.970Z,1.12
2022-12-06T23:33:33.519Z,1.13
2022-12-06T23:41:55.128Z,1.13
2022-12-06T23:50:16.680Z,1.17
2022-12-06T23:58:38.668Z,1.16
